Saint Ignace, MI

5:05 PM EST on December 06, 2016 (GMT -0500)
Mackinac Island

Weather History for KMCD - April, 2013

Change the Weather History Date:

Thursday, April 4, 2013

  Actual Average Record
Temperature  
Mean Temperature 34 °F -  
Max Temperature 39 °F 39 °F 59 °F (1981)
Min Temperature 29 °F 25 °F 5 °F (1975)
Degree Days  
Heating Degree Days 31    
Moisture  
Dew Point 26 °F    
Average Humidity 75    
Maximum Humidity 95    
Minimum Humidity 49    
Precipitation  
Precipitation 0.00 in - - ()
Sea Level Pressure  
Sea Level Pressure 30.00 in    
Wind  
Wind Speed 11 mph (WSW)    
Max Wind Speed 22 mph    
Max Gust Speed 37 mph    
Visibility 7 miles    
Events Snow    
Averages and records for this station are not official NWS values.
T = Trace of Precipitation, MM = Missing Value Source: NWS Daily Summary

Daily Weather History Graph

Daily Weather History Graph

Search for Another Location

Airport or City:

Trip Planner

Search our weather history database for the weather conditions in past years. The results will help you decide how hot, cold, wet, or windy it might be!

Date:

Astronomy

Apr. 04, 2013 Rise Set
Actual Time 7:12 AM EDT 8:11 PM EDT
Civil Twilight 6:42 AM EDT 8:41 PM EDT
Nautical Twilight 6:05 AM EDT 9:18 PM EDT
Astronomical Twilight 5:27 AM EDT 9:56 PM EDT
Moon 3:56 AM EDT (4/4) 2:11 PM EDT (4/4)
Length of Visible Light 13h 59m
Length of Day
12h 58m
Waning Crescent, 34% of the Moon is Illuminated
Apr 4
Waning Crescent
Apr 10
New
Apr 18
First Quarter
Apr 25
Full
May 2
Last Quarter

Hourly Weather History & Observations

Time (EDT) Temp. Windchill Dew Point Humidity Pressure Visibility Wind Dir Wind Speed Gust Speed Precip Events Conditions
12:16 AM 30.0 °F 21.7 °F 16.5 °F 57% 30.21 in 10.0 mi SSW 9.2 mph - N/A   Clear
12:36 AM 29.8 °F 21.5 °F 17.2 °F 59% 30.20 in 10.0 mi SSW 9.2 mph - N/A   Scattered Clouds
12:56 AM 30.0 °F 21.7 °F 18.5 °F 62% 30.20 in 10.0 mi SSW 9.2 mph - N/A   Scattered Clouds
1:15 AM 30.2 °F 22.6 °F 19.4 °F 64% 30.19 in 10.0 mi SSW 8.1 mph - N/A   Clear
1:36 AM 30.2 °F 21.9 °F 19.2 °F 64% 30.18 in 10.0 mi South 9.2 mph - N/A   Scattered Clouds
1:56 AM 30.2 °F 22.6 °F 19.0 °F 63% 30.17 in 10.0 mi South 8.1 mph - N/A   Scattered Clouds
2:15 AM 30.2 °F 21.9 °F 19.0 °F 63% 30.16 in 10.0 mi South 9.2 mph - N/A   Clear
2:36 AM 30.2 °F 21.9 °F 18.0 °F 60% 30.15 in 10.0 mi SSW 9.2 mph - N/A   Clear
2:56 AM 30.2 °F 21.9 °F 16.9 °F 58% 30.14 in 10.0 mi South 9.2 mph - N/A   Clear
3:15 AM 30.2 °F 21.9 °F 16.2 °F 56% 30.13 in 10.0 mi SSW 9.2 mph - N/A   Clear
3:36 AM 30.0 °F 22.4 °F 15.4 °F 55% 30.11 in 10.0 mi SSW 8.1 mph - N/A   Clear
3:56 AM 30.2 °F 21.3 °F 13.5 °F 50% 30.10 in 10.0 mi SSW 10.4 mph - N/A   Clear
4:15 AM 30.6 °F 23.1 °F 13.8 °F 50% 30.08 in 10.0 mi SSW 8.1 mph - N/A   Clear
4:36 AM 31.1 °F 21.4 °F 15.1 °F 52% 30.08 in 10.0 mi SSW 12.7 mph - N/A   Scattered Clouds
4:56 AM 32.0 °F 22.5 °F 14.9 °F 49% 30.07 in 10.0 mi SSW 12.7 mph 21.9 mph N/A   Scattered Clouds
5:15 AM 32.0 °F 22.1 °F 15.8 °F 51% 30.06 in 10.0 mi SSW 13.8 mph 21.9 mph N/A   Scattered Clouds
5:36 AM 32.0 °F 22.5 °F 16.2 °F 52% 30.05 in 10.0 mi SSW 12.7 mph 18.4 mph N/A   Clear
5:56 AM 34.5 °F 24.5 °F 19.8 °F 55% 30.05 in 10.0 mi SW 16.1 mph 23.0 mph N/A   Mostly Cloudy
6:15 AM 35.6 °F 25.9 °F 21.2 °F 56% 30.04 in 10.0 mi SW 16.1 mph 24.2 mph N/A   Overcast
6:36 AM 35.6 °F 26.2 °F 21.4 °F 56% 30.03 in 10.0 mi SW 15.0 mph 24.2 mph N/A   Overcast
6:56 AM 35.1 °F 25.5 °F 22.3 °F 60% 30.04 in 10.0 mi WSW 15.0 mph 20.7 mph N/A   Overcast
7:16 AM 34.9 °F 26.6 °F 23.5 °F 63% 30.03 in 10.0 mi SW 11.5 mph 18.4 mph N/A   Overcast
7:36 AM 34.7 °F 26.4 °F 24.4 °F 66% 30.04 in 10.0 mi WSW 11.5 mph 17.3 mph N/A   Overcast
7:56 AM 34.9 °F 26.2 °F 23.7 °F 64% 30.02 in 7.0 mi SW 12.7 mph 18.4 mph N/A Snow Light Snow
8:15 AM 35.2 °F 26.6 °F 23.5 °F 62% 30.02 in 10.0 mi WSW 12.7 mph 19.6 mph N/A   Overcast
8:36 AM 34.5 °F 24.8 °F 24.4 °F 67% 30.02 in 1.8 mi WSW 15.0 mph 25.3 mph N/A Snow Light Snow
8:56 AM 35.2 °F 25.8 °F 25.0 °F 66% 30.01 in 10.0 mi WSW 15.0 mph 27.6 mph N/A Snow Light Snow
9:16 AM 36.0 °F 25.3 °F 27.0 °F 70% 29.99 in 10.0 mi SW 19.6 mph 31.1 mph N/A   Overcast
9:36 AM 36.7 °F 27.2 °F 27.0 °F 68% 29.97 in 10.0 mi SW 16.1 mph 36.8 mph N/A   Overcast
9:56 AM 37.4 °F 28.2 °F 26.4 °F 65% 29.95 in 10.0 mi SW 16.1 mph 26.5 mph N/A   Overcast
10:16 AM 39.2 °F 30.8 °F 25.0 °F 57% 29.95 in 10.0 mi SW 15.0 mph 27.6 mph N/A   Overcast
10:36 AM 39.2 °F 31.2 °F 24.1 °F 55% 29.95 in 10.0 mi SW 13.8 mph 25.3 mph N/A   Overcast
10:55 AM 38.7 °F 29.5 °F 25.0 °F 58% 29.95 in 10.0 mi WSW 17.3 mph 28.8 mph N/A   Overcast
11:16 AM 37.9 °F 27.3 °F 26.6 °F 64% 29.95 in 7.0 mi SW 21.9 mph 34.5 mph N/A Snow Light Snow
11:36 AM 35.8 °F 25.1 °F 30.7 °F 82% 29.95 in 1.5 mi WSW 19.6 mph 34.5 mph N/A Snow Light Snow
11:55 AM 35.6 °F 26.2 °F 31.1 °F 84% 29.95 in 1.2 mi WSW 15.0 mph 28.8 mph N/A Snow Light Snow
12:55 PM 34.0 °F 24.6 °F 32.4 °F 94% 29.94 in 0.5 mi WSW 13.8 mph 23.0 mph N/A Snow Light Snow
1:16 PM 34.0 °F 25.0 °F 32.5 °F 94% 29.93 in 1.0 mi WSW 12.7 mph 23.0 mph N/A Snow Light Snow
1:55 PM 34.0 °F 25.0 °F 32.5 °F 94% 29.92 in 0.8 mi WSW 12.7 mph 24.2 mph N/A Snow Light Snow
2:16 PM 34.2 °F 25.2 °F 32.9 °F 95% 29.92 in 2.0 mi WSW 12.7 mph 20.7 mph N/A   Overcast
2:35 PM 34.2 °F 24.8 °F 32.9 °F 95% 29.92 in 3.0 mi WSW 13.8 mph 19.6 mph N/A   Overcast
2:56 PM 34.2 °F 25.2 °F 32.9 °F 95% 29.92 in 1.5 mi WSW 12.7 mph 20.7 mph N/A   Overcast
3:16 PM 34.2 °F 25.7 °F 32.9 °F 95% 29.91 in 1.2 mi WSW 11.5 mph 19.6 mph N/A   Overcast
3:35 PM 34.2 °F 25.7 °F 32.9 °F 95% 29.91 in 1.0 mi SW 11.5 mph 21.9 mph N/A   Overcast
3:56 PM 34.5 °F 25.3 °F 33.1 °F 94% 29.90 in 2.0 mi SW 13.8 mph 23.0 mph N/A   Overcast
4:16 PM 34.9 °F 26.2 °F 33.4 °F 94% 29.90 in 2.0 mi WSW 12.7 mph 21.9 mph N/A   Overcast
4:35 PM 35.1 °F 26.9 °F 33.4 °F 94% 29.90 in 2.0 mi WSW 11.5 mph 19.6 mph N/A   Overcast
4:56 PM 35.1 °F 27.4 °F 33.4 °F 94% 29.90 in 2.0 mi WSW 10.4 mph 20.7 mph N/A   Overcast
5:16 PM 35.1 °F 26.4 °F 33.4 °F 94% 29.91 in 2.0 mi WSW 12.7 mph 23.0 mph N/A   Overcast
5:35 PM 35.2 °F 27.6 °F 33.4 °F 93% 29.91 in 2.5 mi WSW 10.4 mph 20.7 mph N/A   Overcast
5:56 PM 35.1 °F 27.4 °F 33.4 °F 94% 29.91 in 2.5 mi WSW 10.4 mph 18.4 mph N/A   Overcast
6:16 PM 35.1 °F 26.9 °F 33.4 °F 94% 29.92 in 2.5 mi WSW 11.5 mph 20.7 mph N/A   Overcast
6:35 PM 35.1 °F 27.9 °F 33.4 °F 94% 29.92 in 3.0 mi West 9.2 mph 16.1 mph N/A   Overcast
6:56 PM 35.6 °F 29.2 °F 33.8 °F 93% 29.93 in 3.0 mi WSW 8.1 mph - N/A   Overcast
7:16 PM 35.6 °F 29.2 °F 33.8 °F 93% 29.93 in 3.0 mi WSW 8.1 mph - N/A   Overcast
7:35 PM 35.2 °F 28.1 °F 33.6 °F 94% 29.93 in 2.5 mi WSW 9.2 mph - N/A   Overcast
7:56 PM 35.2 °F 30.3 °F 33.8 °F 94% 29.94 in 3.0 mi West 5.8 mph - N/A   Overcast
8:16 PM 35.1 °F 29.3 °F 33.4 °F 94% 29.94 in 2.5 mi West 6.9 mph - N/A   Overcast
8:56 PM 35.1 °F 28.6 °F 33.4 °F 94% 29.95 in 4.0 mi West 8.1 mph - N/A   Overcast
9:16 PM 35.1 °F 28.6 °F 33.3 °F 93% 29.95 in 5.0 mi NW 8.1 mph - N/A   Overcast
9:35 PM 35.8 °F 28.8 °F 31.8 °F 86% 29.96 in 10.0 mi NW 9.2 mph 18.4 mph N/A   Overcast
9:56 PM 36.0 °F 29.0 °F 31.1 °F 82% 29.97 in 10.0 mi WNW 9.2 mph - N/A   Overcast
10:16 PM 35.6 °F 29.2 °F 30.6 °F 82% 29.97 in 10.0 mi NW 8.1 mph - N/A   Overcast
10:35 PM 35.2 °F 29.5 °F 30.2 °F 82% 29.97 in 10.0 mi NW 6.9 mph - N/A   Overcast
10:56 PM 34.5 °F 28.6 °F 29.3 °F 81% 29.98 in 10.0 mi WNW 6.9 mph - N/A   Scattered Clouds
11:16 PM 34.0 °F 28.0 °F 29.1 °F 82% 29.98 in 10.0 mi NW 6.9 mph - N/A   Scattered Clouds
11:35 PM 33.8 °F 27.0 °F 28.4 °F 81% 29.98 in 10.0 mi WNW 8.1 mph - N/A   Clear
11:56 PM 33.3 °F 26.4 °F 28.2 °F 82% 29.99 in 10.0 mi NW 8.1 mph - N/A   Clear